createdAt,value
2022-08-11T00:02:27.865Z,66.78
2022-08-11T00:04:58.065Z,67.38
2022-08-11T00:07:26.933Z,67.75
2022-08-11T00:09:56.573Z,68.01
2022-08-11T00:12:26.539Z,68.13
2022-08-11T00:15:00.104Z,68.19
2022-08-11T00:17:30.218Z,68.89
2022-08-11T00:20:15.222Z,69.08
2022-08-11T00:22:46.652Z,69.71
2022-08-11T00:25:16.624Z,69.67
2022-08-11T00:27:46.996Z,69.75
2022-08-11T00:30:15.802Z,69.69
2022-08-11T00:32:46.440Z,69.70
2022-08-11T00:35:56.343Z,69.75
2022-08-11T00:38:08.095Z,69.53
2022-08-11T00:40:41.903Z,69.64
2022-08-11T00:43:23.059Z,69.45
2022-08-11T00:46:15.646Z,69.62
2022-08-11T00:48:58.254Z,69.56
2022-08-11T00:51:59.752Z,69.73
2022-08-11T00:55:03.471Z,69.28
2022-08-11T00:58:07.350Z,68.88
2022-08-11T01:00:58.235Z,68.99
2022-08-11T01:03:43.862Z,69.26
2022-08-11T01:06:32.695Z,69.55
2022-08-11T01:09:29.079Z,70.36
2022-08-11T01:12:22.050Z,70.34
2022-08-11T01:15:17.742Z,70.41
2022-08-11T01:18:28.356Z,70.56
2022-08-11T01:21:22.237Z,70.39
2022-08-11T01:24:31.153Z,70.92
2022-08-11T01:27:33.999Z,71.20
2022-08-11T01:30:18.844Z,70.85
2022-08-11T01:33:25.974Z,70.72
2022-08-11T01:36:48.307Z,71.20
2022-08-11T01:39:50.071Z,71.84
2022-08-11T01:43:07.223Z,72.14
2022-08-11T01:45:43.010Z,72.44
2022-08-11T01:48:24.048Z,72.66
2022-08-11T01:51:04.370Z,73.29
2022-08-11T01:53:46.475Z,73.50
2022-08-11T01:56:30.774Z,73.37
2022-08-11T01:59:08.678Z,73.73
2022-08-11T02:01:46.551Z,74.14
2022-08-11T02:04:25.766Z,74.09
2022-08-11T02:07:02.774Z,73.46
2022-08-11T02:09:49.628Z,73.27
2022-08-11T02:12:42.698Z,72.64
2022-08-11T02:15:27.706Z,72.06
2022-08-11T02:18:05.062Z,72.07
2022-08-11T02:20:56.022Z,71.98
2022-08-11T02:24:03.868Z,72.00
2022-08-11T02:26:42.174Z,71.78
2022-08-11T02:29:19.969Z,71.90
2022-08-11T02:32:24.374Z,72.45
2022-08-11T02:35:04.681Z,73.11
2022-08-11T02:37:43.891Z,73.63
2022-08-11T02:40:21.665Z,73.70
2022-08-11T02:43:06.363Z,73.65
2022-08-11T02:45:47.290Z,73.03
2022-08-11T02:48:47.101Z,72.67
2022-08-11T02:51:24.610Z,72.15
2022-08-11T02:54:02.158Z,71.95
2022-08-11T02:56:44.618Z,71.85
2022-08-11T02:59:45.900Z,71.73
2022-08-11T03:02:32.745Z,72.08
2022-08-11T03:05:08.650Z,71.74
2022-08-11T03:07:49.321Z,71.90
2022-08-11T03:10:24.515Z,71.77
2022-08-11T03:13:15.522Z,71.85
2022-08-11T03:16:09.949Z,71.86
2022-08-11T03:18:46.296Z,71.58
2022-08-11T03:21:22.052Z,71.76
2022-08-11T03:23:56.845Z,71.83
2022-08-11T03:26:29.652Z,71.73
2022-08-11T03:29:08.060Z,72.08
2022-08-11T03:31:46.097Z,72.25
2022-08-11T03:34:18.489Z,72.55
2022-08-11T03:37:34.213Z,72.42
2022-08-11T03:40:12.279Z,72.83
2022-08-11T03:42:46.919Z,72.94
2022-08-11T03:45:29.540Z,73.35
2022-08-11T03:48:13.904Z,73.08
2022-08-11T03:50:56.043Z,73.28
2022-08-11T03:53:48.930Z,73.50
2022-08-11T03:56:55.340Z,73.73
2022-08-11T03:59:51.832Z,73.93
2022-08-11T04:02:34.876Z,73.91
2022-08-11T04:05:37.275Z,73.77
2022-08-11T04:08:40.639Z,73.76
2022-08-11T04:11:47.010Z,74.30
2022-08-11T04:15:07.693Z,74.37
2022-08-11T04:18:15.453Z,75.43
2022-08-11T04:21:05.982Z,75.78
2022-08-11T04:24:35.624Z,75.67
2022-08-11T04:27:08.323Z,75.62
2022-08-11T04:30:03.025Z,75.81
2022-08-11T04:33:34.177Z,76.00
2022-08-11T04:36:42.962Z,76.04
2022-08-11T04:39:27.080Z,75.90
2022-08-11T04:42:53.535Z,75.64
2022-08-11T04:45:46.021Z,75.31
2022-08-11T04:48:57.374Z,74.99
2022-08-11T04:52:37.971Z,74.76
2022-08-11T04:55:50.676Z,75.26
2022-08-11T04:58:41.914Z,74.94
2022-08-11T05:01:43.454Z,74.74
2022-08-11T05:04:47.954Z,74.03
2022-08-11T05:07:42.220Z,73.82
2022-08-11T05:10:27.133Z,73.34
2022-08-11T05:12:56.953Z,73.23
2022-08-11T05:15:53.891Z,73.17
2022-08-11T05:18:42.779Z,72.40
2022-08-11T05:21:31.188Z,72.28
2022-08-11T05:24:39.874Z,72.15
2022-08-11T05:27:28.731Z,71.67
2022-08-11T05:30:20.062Z,71.46
2022-08-11T05:33:14.752Z,71.13
2022-08-11T05:36:02.294Z,70.17
2022-08-11T05:38:52.517Z,69.69
2022-08-11T05:41:41.908Z,69.57
2022-08-11T05:44:29.381Z,68.99
2022-08-11T05:47:16.862Z,68.51
2022-08-11T05:50:08.906Z,68.22
2022-08-11T05:53:05.222Z,67.62
2022-08-11T05:56:02.268Z,67.26
2022-08-11T05:58:41.761Z,66.58
2022-08-11T06:01:10.590Z,66.77
2022-08-11T06:03:59.002Z,66.54
2022-08-11T06:06:29.610Z,65.17
2022-08-11T06:08:58.817Z,64.94
2022-08-11T06:11:44.137Z,64.96
2022-08-11T06:14:15.650Z,64.34
2022-08-11T06:16:48.213Z,64.09
2022-08-11T06:19:16.741Z,64.01
2022-08-11T06:21:47.847Z,63.54
2022-08-11T06:24:16.970Z,63.16
2022-08-11T06:29:54.391Z,61.81
2022-08-11T06:32:25.968Z,61.06
2022-08-11T06:35:04.638Z,61.59
2022-08-11T06:37:43.524Z,60.90
2022-08-11T06:40:18.980Z,60.96
2022-08-11T06:42:54.648Z,60.99
2022-08-11T06:45:30.589Z,60.56
2022-08-11T06:48:01.126Z,60.23
2022-08-11T06:50:48.553Z,59.80
2022-08-11T06:53:19.803Z,60.20
2022-08-11T06:56:08.748Z,59.58
2022-08-11T06:58:57.745Z,59.34
2022-08-11T07:01:46.269Z,59.76
2022-08-11T07:04:25.048Z,59.42
2022-08-11T07:07:22.788Z,58.50
2022-08-11T07:10:38.531Z,58.47
2022-08-11T07:13:44.434Z,57.86
2022-08-11T07:16:17.220Z,57.78
2022-08-11T07:19:06.680Z,57.70
2022-08-11T07:22:01.280Z,57.45
2022-08-11T07:24:59.338Z,56.93
2022-08-11T07:27:55.492Z,56.50
2022-08-11T07:30:25.317Z,56.37
2022-08-11T07:32:57.465Z,56.64
2022-08-11T07:35:34.164Z,55.82
2022-08-11T07:38:06.876Z,56.17
2022-08-11T07:40:37.127Z,55.88
2022-08-11T07:43:06.948Z,54.90
2022-08-11T07:46:07.478Z,55.07
2022-08-11T07:48:53.665Z,54.89
2022-08-11T07:51:41.282Z,54.29
2022-08-11T07:54:17.110Z,54.17
2022-08-11T07:56:55.328Z,53.09
2022-08-11T08:00:03.514Z,54.02
2022-08-11T08:02:59.866Z,53.56
2022-08-11T08:05:45.302Z,53.81
2022-08-11T08:08:33.462Z,53.13
2022-08-11T08:11:25.504Z,52.41
2022-08-11T08:14:13.335Z,52.21
2022-08-11T08:17:00.370Z,52.75
2022-08-11T08:19:28.648Z,51.42
2022-08-11T08:22:01.099Z,51.47
2022-08-11T08:24:47.877Z,51.15
2022-08-11T08:27:16.493Z,50.03
2022-08-11T08:30:03.912Z,49.78
2022-08-11T08:32:32.620Z,50.11
2022-08-11T08:35:00.935Z,50.10
2022-08-11T08:37:46.989Z,50.42
2022-08-11T08:40:17.448Z,49.85
2022-08-11T08:42:51.978Z,49.89
2022-08-11T08:45:21.111Z,49.39
2022-08-11T08:47:54.543Z,48.35
2022-08-11T08:50:27.688Z,47.80
2022-08-11T08:53:02.250Z,48.41
2022-08-11T08:55:33.648Z,47.29
2022-08-11T08:58:03.091Z,47.62
2022-08-11T09:00:41.778Z,46.97
2022-08-11T09:03:39.893Z,47.58
2022-08-11T09:05:59.595Z,48.01
2022-08-11T09:08:29.422Z,46.46
2022-08-11T09:11:14.263Z,45.83
2022-08-11T09:13:46.089Z,46.68
2022-08-11T09:16:31.772Z,46.04
2022-08-11T09:19:01.851Z,44.96
2022-08-11T09:21:48.781Z,45.42
2022-08-11T09:24:36.715Z,44.63
2022-08-11T09:27:08.730Z,45.36
2022-08-11T09:29:39.063Z,44.87
2022-08-11T09:32:08.408Z,44.75
2022-08-11T09:34:38.284Z,45.41
2022-08-11T09:37:55.761Z,44.92
2022-08-11T09:40:33.363Z,44.78
2022-08-11T09:43:23.167Z,43.61
2022-08-11T09:45:53.534Z,43.56
2022-08-11T09:48:22.871Z,43.58
2022-08-11T09:50:52.407Z,44.44
2022-08-11T09:53:35.058Z,42.43
2022-08-11T09:56:26.778Z,44.22
2022-08-11T09:58:54.944Z,42.50
2022-08-11T10:01:30.130Z,43.12
2022-08-11T10:04:01.563Z,42.88
2022-08-11T10:06:53.958Z,41.63
2022-08-11T10:09:25.014Z,41.31
2022-08-11T10:11:58.833Z,41.06
2022-08-11T10:14:46.473Z,41.75
2022-08-11T10:17:17.416Z,40.89
2022-08-11T10:20:02.742Z,40.18
2022-08-11T10:22:50.749Z,41.38
2022-08-11T10:25:36.350Z,40.81
2022-08-11T10:28:17.767Z,40.42
2022-08-11T10:31:15.553Z,40.51
2022-08-11T10:34:01.592Z,40.01
2022-08-11T10:36:32.130Z,40.88
2022-08-11T10:39:01.408Z,40.75
2022-08-11T10:42:07.373Z,40.59
2022-08-11T10:44:39.225Z,40.07
2022-08-11T10:47:28.002Z,39.38
2022-08-11T10:50:11.367Z,39.66
2022-08-11T10:52:58.474Z,40.16
2022-08-11T10:55:44.638Z,40.05
2022-08-11T10:58:30.612Z,40.20
2022-08-11T11:01:00.495Z,39.02
2022-08-11T11:03:34.476Z,39.45
2022-08-11T11:06:13.271Z,39.74
2022-08-11T11:09:04.482Z,39.26
2022-08-11T11:11:55.143Z,38.02
2022-08-11T11:14:46.071Z,37.76
2022-08-11T11:17:42.735Z,38.52
2022-08-11T11:20:34.730Z,38.60
2022-08-11T11:23:08.969Z,38.35
2022-08-11T11:26:06.255Z,39.78
2022-08-11T11:28:51.395Z,38.30
2022-08-11T11:31:31.675Z,38.26
2022-08-11T11:34:16.046Z,38.50
2022-08-11T11:36:49.942Z,39.75
2022-08-11T11:39:20.338Z,38.48
2022-08-11T11:41:49.404Z,39.70
2022-08-11T11:44:17.883Z,38.91
2022-08-11T11:46:46.800Z,39.13
2022-08-11T11:49:18.569Z,38.85
2022-08-11T11:51:50.210Z,39.54
2022-08-11T11:54:21.091Z,40.05
2022-08-11T11:56:51.214Z,39.79
2022-08-11T11:59:37.368Z,40.68
2022-08-11T12:02:11.983Z,40.14
2022-08-11T12:04:43.022Z,40.30
2022-08-11T12:07:30.891Z,40.06
2022-08-11T12:10:00.003Z,40.27
2022-08-11T12:12:54.354Z,39.85
2022-08-11T12:16:06.491Z,39.51
2022-08-11T12:18:12.358Z,40.09
2022-08-11T12:20:40.386Z,41.11
2022-08-11T12:23:28.183Z,40.08
2022-08-11T12:26:27.012Z,40.57
2022-08-11T12:28:59.768Z,41.46
2022-08-11T12:31:29.302Z,41.12
2022-08-11T12:34:02.447Z,41.68
2022-08-11T12:36:33.613Z,40.92
2022-08-11T12:39:23.167Z,41.37
2022-08-11T12:42:11.399Z,40.85
2022-08-11T12:44:56.991Z,40.38
2022-08-11T12:47:45.792Z,39.66
2022-08-11T12:50:52.370Z,40.80
2022-08-11T12:53:28.053Z,41.05
2022-08-11T12:56:21.275Z,40.40
2022-08-11T12:58:50.620Z,41.73
2022-08-11T13:01:38.922Z,41.39
2022-08-11T13:04:24.343Z,42.57
2022-08-11T13:06:53.205Z,41.49
2022-08-11T13:09:21.853Z,40.31
2022-08-11T13:12:08.687Z,40.06
2022-08-11T13:14:36.615Z,40.22
2022-08-11T13:17:43.473Z,40.04
2022-08-11T13:20:13.450Z,40.70
2022-08-11T13:22:45.619Z,41.08
2022-08-11T13:25:16.226Z,41.57
2022-08-11T13:27:46.487Z,39.61
2022-08-11T13:30:35.594Z,39.22
2022-08-11T13:33:07.507Z,40.71
2022-08-11T13:35:36.986Z,39.94
2022-08-11T13:38:27.565Z,39.65
2022-08-11T13:40:56.505Z,40.49
2022-08-11T13:43:26.013Z,39.23
2022-08-11T13:46:15.423Z,39.11
2022-08-11T13:48:43.530Z,39.53
2022-08-11T13:51:34.781Z,39.91
2022-08-11T13:54:07.538Z,39.44
2022-08-11T13:56:39.662Z,38.46
2022-08-11T13:59:10.194Z,39.36
2022-08-11T14:02:20.841Z,39.26
2022-08-11T14:04:33.807Z,39.15
2022-08-11T14:07:06.139Z,39.05
2022-08-11T14:09:45.986Z,38.47
2022-08-11T14:12:36.825Z,38.56
2022-08-11T14:15:11.841Z,37.68
2022-08-11T14:17:48.942Z,38.05
2022-08-11T14:20:39.450Z,38.71
2022-08-11T14:23:11.380Z,39.22
2022-08-11T14:26:02.931Z,38.41
2022-08-11T14:28:38.857Z,38.20
2022-08-11T14:31:15.172Z,38.47
2022-08-11T14:34:00.722Z,37.77
2022-08-11T14:36:33.339Z,38.50
2022-08-11T14:39:04.165Z,38.54
2022-08-11T14:42:11.229Z,37.92
2022-08-11T14:44:58.571Z,37.64
2022-08-11T14:47:29.087Z,37.83
2022-08-11T14:50:11.145Z,37.61
2022-08-11T14:52:46.450Z,37.89
2022-08-11T14:55:32.408Z,37.45
2022-08-11T14:58:01.812Z,37.67
2022-08-11T15:00:30.982Z,36.51
2022-08-11T15:03:12.973Z,37.41
2022-08-11T15:05:57.322Z,37.25
2022-08-11T15:08:47.255Z,36.91
2022-08-11T15:11:35.734Z,36.15
2022-08-11T15:14:05.357Z,36.84
2022-08-11T15:16:51.815Z,36.90
2022-08-11T15:19:21.967Z,36.74
2022-08-11T15:22:07.947Z,35.68
2022-08-11T15:24:37.184Z,36.15
2022-08-11T15:27:28.183Z,35.23
2022-08-11T15:30:20.959Z,35.34
2022-08-11T15:33:20.188Z,35.23
2022-08-11T15:36:07.818Z,35.32
2022-08-11T15:38:40.879Z,35.09
2022-08-11T15:41:30.614Z,34.62
2022-08-11T15:44:16.469Z,35.36
2022-08-11T15:46:48.345Z,35.07
2022-08-11T15:49:23.784Z,35.10
2022-08-11T15:52:02.286Z,34.93
2022-08-11T15:54:32.901Z,34.71
2022-08-11T15:57:03.830Z,34.86
2022-08-11T15:59:52.339Z,34.28
2022-08-11T16:02:41.183Z,34.26
2022-08-11T16:05:14.119Z,34.50
2022-08-11T16:08:04.800Z,35.05
2022-08-11T16:10:33.862Z,34.85
2022-08-11T16:13:21.071Z,35.75
2022-08-11T16:16:11.051Z,35.61
2022-08-11T16:18:44.184Z,36.08
2022-08-11T16:21:26.260Z,36.17
2022-08-11T16:24:07.639Z,36.27
2022-08-11T16:27:10.130Z,36.28
2022-08-11T16:29:31.679Z,35.98
2022-08-11T16:32:20.668Z,36.62
2022-08-11T16:35:10.648Z,36.13
2022-08-11T16:37:57.767Z,36.97
2022-08-11T16:40:27.163Z,37.60
2022-08-11T16:43:15.100Z,37.94
2022-08-11T16:46:01.222Z,38.09
2022-08-11T16:48:36.244Z,38.46
2022-08-11T16:51:07.059Z,38.72
2022-08-11T16:53:59.607Z,38.53
2022-08-11T16:56:28.278Z,38.07
2022-08-11T16:59:11.011Z,38.34
2022-08-11T17:01:40.324Z,39.05
2022-08-11T17:04:31.304Z,39.29
2022-08-11T17:07:23.616Z,39.33
2022-08-11T17:10:31.774Z,39.62
2022-08-11T17:13:18.844Z,39.96
2022-08-11T17:16:07.966Z,40.20
2022-08-11T17:18:43.161Z,40.06
2022-08-11T17:21:16.010Z,41.08
2022-08-11T17:23:48.206Z,39.63
2022-08-11T17:26:19.018Z,40.39
2022-08-11T17:28:52.836Z,39.90
2022-08-11T17:31:40.424Z,39.91
2022-08-11T17:34:26.292Z,40.59
2022-08-11T17:36:56.250Z,41.09
2022-08-11T17:39:30.080Z,41.30
2022-08-11T17:42:17.521Z,41.17
2022-08-11T17:45:05.416Z,40.99
2022-08-11T17:47:52.591Z,40.94
2022-08-11T17:50:21.979Z,41.27
2022-08-11T17:53:08.442Z,41.40
2022-08-11T17:55:58.132Z,42.23
2022-08-11T17:58:45.926Z,41.42
2022-08-11T18:01:15.884Z,42.06
2022-08-11T18:03:56.424Z,42.31
2022-08-11T18:06:33.786Z,42.41
2022-08-11T18:09:23.830Z,42.37
2022-08-11T18:12:12.734Z,42.39
2022-08-11T18:15:00.835Z,42.93
2022-08-11T18:17:47.538Z,43.16
2022-08-11T18:20:32.570Z,43.42
2022-08-11T18:23:41.664Z,43.51
2022-08-11T18:26:31.080Z,43.80
2022-08-11T18:29:18.179Z,44.13
2022-08-11T18:32:08.633Z,44.07
2022-08-11T18:35:00.433Z,44.61
2022-08-11T18:37:49.952Z,44.45
2022-08-11T18:40:40.607Z,44.94
2022-08-11T18:43:29.651Z,45.11
2022-08-11T18:46:19.779Z,45.31
2022-08-11T18:49:15.297Z,45.83
2022-08-11T18:52:06.826Z,45.98
2022-08-11T18:54:55.114Z,46.36
2022-08-11T18:57:49.906Z,46.59
2022-08-11T19:00:44.465Z,46.75
2022-08-11T19:03:32.995Z,46.64
2022-08-11T19:06:39.935Z,47.37
2022-08-11T19:09:31.790Z,47.73
2022-08-11T19:12:19.189Z,47.23
2022-08-11T19:15:08.442Z,47.82
2022-08-11T19:17:57.666Z,47.38
2022-08-11T19:20:46.277Z,47.89
2022-08-11T19:23:35.035Z,47.97
2022-08-11T19:26:23.149Z,48.17
2022-08-11T19:29:09.620Z,48.80
2022-08-11T19:32:16.890Z,48.88
2022-08-11T19:35:03.671Z,49.38
2022-08-11T19:37:50.708Z,49.42
2022-08-11T19:40:36.321Z,49.72
2022-08-11T19:43:26.454Z,50.16
2022-08-11T19:46:14.810Z,49.89
2022-08-11T19:49:01.519Z,50.09
2022-08-11T19:51:47.600Z,50.15
2022-08-11T19:54:42.438Z,50.92
2022-08-11T19:57:29.099Z,51.29
2022-08-11T20:00:17.406Z,51.82
2022-08-11T20:03:07.343Z,52.29
2022-08-11T20:05:59.418Z,52.29
2022-08-11T20:08:48.806Z,53.26
2022-08-11T20:11:37.202Z,54.65
2022-08-11T20:14:25.630Z,55.24
2022-08-11T20:17:13.896Z,55.01
2022-08-11T20:22:51.901Z,55.77
2022-08-11T20:25:41.197Z,56.20
2022-08-11T20:28:30.311Z,56.05
2022-08-11T20:31:15.763Z,57.18
2022-08-11T20:34:04.317Z,57.63
2022-08-11T20:36:54.911Z,57.13
2022-08-11T20:39:41.765Z,57.78
2022-08-11T20:42:30.768Z,57.91
2022-08-11T20:45:23.305Z,58.17
2022-08-11T20:48:10.818Z,59.03
2022-08-11T20:51:06.262Z,58.97
2022-08-11T20:53:56.663Z,58.49
2022-08-11T20:56:45.718Z,58.95
2022-08-11T20:59:33.259Z,59.78
2022-08-11T21:02:29.707Z,59.97
2022-08-11T21:05:19.471Z,60.99
2022-08-11T21:08:25.548Z,61.14
2022-08-11T21:11:12.903Z,61.66
2022-08-11T21:14:01.880Z,62.77
2022-08-11T21:16:52.758Z,62.29
2022-08-11T21:20:00.166Z,62.06
2022-08-11T21:22:59.339Z,62.32
2022-08-11T21:25:59.252Z,62.90
2022-08-11T21:28:46.811Z,62.42
2022-08-11T21:31:34.142Z,62.31
2022-08-11T21:34:20.899Z,62.14
2022-08-11T21:37:08.909Z,61.73
2022-08-11T21:39:56.227Z,62.75
2022-08-11T21:42:44.359Z,64.00
2022-08-11T21:45:32.409Z,64.24
2022-08-11T21:48:19.874Z,63.96
2022-08-11T21:51:05.099Z,64.21
2022-08-11T21:53:52.396Z,64.52
2022-08-11T21:56:38.521Z,64.66
2022-08-11T21:59:25.709Z,64.15
2022-08-11T22:02:13.250Z,64.11
2022-08-11T22:04:59.015Z,63.72
2022-08-11T22:07:44.586Z,63.62
2022-08-11T22:10:41.862Z,63.62
2022-08-11T22:13:30.269Z,63.50
2022-08-11T22:16:17.973Z,63.37
2022-08-11T22:19:04.878Z,63.47
2022-08-11T22:22:01.550Z,62.95
2022-08-11T22:24:51.387Z,63.77
2022-08-11T22:27:37.027Z,64.78
2022-08-11T22:30:25.601Z,64.98
2022-08-11T22:33:15.042Z,65.18
2022-08-11T22:36:02.566Z,65.24
2022-08-11T22:38:51.086Z,65.99
2022-08-11T22:41:37.233Z,66.71
2022-08-11T22:44:23.358Z,67.39
2022-08-11T22:47:10.134Z,67.56
2022-08-11T22:49:58.690Z,67.62
2022-08-11T22:52:46.110Z,67.39
2022-08-11T22:55:32.791Z,67.84
2022-08-11T22:58:19.344Z,68.05
2022-08-11T23:01:05.341Z,68.33
2022-08-11T23:03:51.747Z,69.00
2022-08-11T23:06:39.584Z,68.91
2022-08-11T23:09:26.323Z,68.38
2022-08-11T23:12:12.439Z,68.67
2022-08-11T23:14:59.492Z,68.51
2022-08-11T23:17:46.302Z,68.32
2022-08-11T23:20:43.316Z,68.22
2022-08-11T23:23:35.687Z,67.88
2022-08-11T23:26:22.412Z,68.33
2022-08-11T23:29:07.625Z,69.29
2022-08-11T23:31:55.062Z,69.24
2022-08-11T23:35:04.910Z,68.76
2022-08-11T23:37:48.531Z,67.84
2022-08-11T23:40:35.925Z,67.50
2022-08-11T23:43:22.007Z,68.10
2022-08-11T23:46:07.863Z,68.83
2022-08-11T23:48:55.809Z,69.06
2022-08-11T23:51:42.501Z,68.73
2022-08-11T23:54:32.609Z,69.23
2022-08-11T23:57:24.186Z,70.19
